Terminal Aerodrome Forecast
Issued by NWS

Home | Current Version | Previous Version | Text Only | Print | Product List | Glossary On
Versions: 1 2 3 4 5 6 7 8 9 10 11 12 13 14 15 16 17 18
757
FTUS45 KABQ 201353 AAA
TAFSAF
TAF AMD
KSAF 201353Z 2014/2112 25010KT P6SM VCSH FEW030 BKN050
     FM201700 25014G23KT P6SM BKN050
     FM202100 25018G28KT P6SM VCSH SCT020 BKN035
     FM210200 20010KT P6SM VCSH BKN030=

USA.gov is the U.S. government's official web portal to all federal, state and local government web resources and services.